Walling, Tennessee
Current Conditions -  °F | °C
As of 2:15 PM on Friday 31 Oct 2014 (Local Time) from KRNC Reporting Station
Overcast Overcast  
Wind Chill: 43°   Ceiling: 2000
Heat Index: 48°   Visibility: 10mi
Dew Point: 46°   Wind: 12mph
Humidity: 93%   Direction: 330°NNW
Pressure: 29.96"   Gusts: NA
Location:  35.81°N, 85.6°W
Report Text: KRNC 311915Z AUTO 33010KT 10SM BKN020 OVC026 09/08 A2996 RMK
Loading
Personal Weather Stations






























Interactive Weather Map
Tropical Storm Tracking
New forecast layout! Learn more

10-Day Weather Forecast

Advertisements
Track Severe Weather on mobile